sensor_id;sensor_type;location;lat;lon;timestamp;P1;durP1;ratioP1;P2;durP2;ratioP2
31514;SDS011;40526;52.088;17.020;2023-03-31T00:01:43;12.75;;;7.35;;
31514;SDS011;40526;52.088;17.020;2023-03-31T00:06:46;13.60;;;8.27;;
31514;SDS011;40526;52.088;17.020;2023-03-31T00:11:48;12.90;;;7.15;;
31514;SDS011;40526;52.088;17.020;2023-03-31T00:16:52;11.80;;;7.45;;
31514;SDS011;40526;52.088;17.020;2023-03-31T00:21:55;12.82;;;7.35;;
31514;SDS011;40526;52.088;17.020;2023-03-31T00:27:02;12.75;;;7.50;;
31514;SDS011;40526;52.088;17.020;2023-03-31T00:32:07;9.73;;;7.03;;
31514;SDS011;40526;52.088;17.020;2023-03-31T00:37:09;12.20;;;7.88;;
31514;SDS011;40526;52.088;17.020;2023-03-31T00:42:15;12.20;;;7.60;;
31514;SDS011;40526;52.088;17.020;2023-03-31T00:47:19;19.08;;;8.32;;
31514;SDS011;40526;52.088;17.020;2023-03-31T00:52:23;16.80;;;8.13;;
31514;SDS011;40526;52.088;17.020;2023-03-31T00:57:28;14.00;;;8.85;;
31514;SDS011;40526;52.088;17.020;2023-03-31T01:02:35;15.48;;;8.23;;
31514;SDS011;40526;52.088;17.020;2023-03-31T01:07:41;17.85;;;8.15;;
31514;SDS011;40526;52.088;17.020;2023-03-31T01:12:46;12.73;;;8.27;;
31514;SDS011;40526;52.088;17.020;2023-03-31T01:17:52;15.50;;;8.10;;
31514;SDS011;40526;52.088;17.020;2023-03-31T01:23:09;13.15;;;9.30;;
31514;SDS011;40526;52.088;17.020;2023-03-31T01:28:32;12.18;;;8.80;;
31514;SDS011;40526;52.088;17.020;2023-03-31T01:33:49;16.30;;;8.88;;
31514;SDS011;40526;52.088;17.020;2023-03-31T01:39:18;14.13;;;8.80;;
31514;SDS011;40526;52.088;17.020;2023-03-31T01:44:48;14.77;;;8.75;;
31514;SDS011;40526;52.088;17.020;2023-03-31T01:49:59;14.57;;;8.85;;
31514;SDS011;40526;52.088;17.020;2023-03-31T01:55:09;20.33;;;9.70;;
31514;SDS011;40526;52.088;17.020;2023-03-31T02:00:15;14.90;;;9.32;;
31514;SDS011;40526;52.088;17.020;2023-03-31T02:05:21;14.77;;;9.25;;
31514;SDS011;40526;52.088;17.020;2023-03-31T02:10:26;20.27;;;9.25;;
31514;SDS011;40526;52.088;17.020;2023-03-31T02:15:33;16.13;;;10.02;;
31514;SDS011;40526;52.088;17.020;2023-03-31T02:20:41;13.18;;;9.07;;
31514;SDS011;40526;52.088;17.020;2023-03-31T02:25:46;16.40;;;9.07;;
31514;SDS011;40526;52.088;17.020;2023-03-31T02:30:55;13.68;;;8.48;;
31514;SDS011;40526;52.088;17.020;2023-03-31T02:36:06;16.00;;;8.63;;
31514;SDS011;40526;52.088;17.020;2023-03-31T02:41:09;15.55;;;9.43;;
31514;SDS011;40526;52.088;17.020;2023-03-31T02:46:13;13.55;;;8.23;;
31514;SDS011;40526;52.088;17.020;2023-03-31T02:56:58;15.60;;;8.43;;
31514;SDS011;40526;52.088;17.020;2023-03-31T03:02:20;14.15;;;7.95;;
31514;SDS011;40526;52.088;17.020;2023-03-31T03:07:30;16.83;;;7.90;;
31514;SDS011;40526;52.088;17.020;2023-03-31T03:12:42;15.48;;;6.95;;
31514;SDS011;40526;52.088;17.020;2023-03-31T03:17:52;9.10;;;6.28;;
31514;SDS011;40526;52.088;17.020;2023-03-31T03:22:56;12.65;;;6.97;;
31514;SDS011;40526;52.088;17.020;2023-03-31T03:27:58;12.55;;;8.15;;
31514;SDS011;40526;52.088;17.020;2023-03-31T03:33:02;12.18;;;7.07;;
31514;SDS011;40526;52.088;17.020;2023-03-31T03:38:05;15.15;;;8.18;;
31514;SDS011;40526;52.088;17.020;2023-03-31T03:43:07;14.27;;;8.95;;
31514;SDS011;40526;52.088;17.020;2023-03-31T03:48:11;13.20;;;8.35;;
31514;SDS011;40526;52.088;17.020;2023-03-31T03:53:13;15.27;;;9.65;;
31514;SDS011;40526;52.088;17.020;2023-03-31T03:58:16;10.70;;;7.05;;
31514;SDS011;40526;52.088;17.020;2023-03-31T04:03:20;8.68;;;7.25;;
31514;SDS011;40526;52.088;17.020;2023-03-31T04:08:23;11.73;;;7.30;;
31514;SDS011;40526;52.088;17.020;2023-03-31T04:13:25;11.02;;;7.28;;
31514;SDS011;40526;52.088;17.020;2023-03-31T04:18:29;9.40;;;6.03;;
31514;SDS011;40526;52.088;17.020;2023-03-31T04:23:31;9.98;;;6.22;;
31514;SDS011;40526;52.088;17.020;2023-03-31T04:28:33;11.77;;;6.00;;
31514;SDS011;40526;52.088;17.020;2023-03-31T04:33:37;11.60;;;6.47;;
31514;SDS011;40526;52.088;17.020;2023-03-31T04:38:39;8.60;;;5.47;;
31514;SDS011;40526;52.088;17.020;2023-03-31T04:43:46;8.70;;;5.82;;
31514;SDS011;40526;52.088;17.020;2023-03-31T04:48:49;10.27;;;6.13;;
31514;SDS011;40526;52.088;17.020;2023-03-31T04:53:51;8.85;;;6.18;;
31514;SDS011;40526;52.088;17.020;2023-03-31T04:58:53;11.25;;;6.97;;
31514;SDS011;40526;52.088;17.020;2023-03-31T05:03:57;10.63;;;6.50;;
31514;SDS011;40526;52.088;17.020;2023-03-31T05:08:59;13.15;;;6.15;;
31514;SDS011;40526;52.088;17.020;2023-03-31T05:14:02;8.63;;;5.85;;
31514;SDS011;40526;52.088;17.020;2023-03-31T05:19:05;11.25;;;5.38;;
31514;SDS011;40526;52.088;17.020;2023-03-31T05:24:08;7.38;;;4.35;;
31514;SDS011;40526;52.088;17.020;2023-03-31T05:29:10;7.93;;;4.65;;
31514;SDS011;40526;52.088;17.020;2023-03-31T05:34:14;7.00;;;4.53;;
31514;SDS011;40526;52.088;17.020;2023-03-31T05:39:16;10.30;;;4.63;;
31514;SDS011;40526;52.088;17.020;2023-03-31T05:44:19;6.97;;;4.53;;
31514;SDS011;40526;52.088;17.020;2023-03-31T05:49:23;10.23;;;4.70;;
31514;SDS011;40526;52.088;17.020;2023-03-31T05:54:26;10.55;;;5.70;;
31514;SDS011;40526;52.088;17.020;2023-03-31T05:59:28;9.88;;;5.30;;
31514;SDS011;40526;52.088;17.020;2023-03-31T06:04:33;6.30;;;5.15;;
31514;SDS011;40526;52.088;17.020;2023-03-31T06:09:36;14.00;;;6.03;;
31514;SDS011;40526;52.088;17.020;2023-03-31T06:14:38;9.02;;;5.40;;
31514;SDS011;40526;52.088;17.020;2023-03-31T06:19:42;5.50;;;3.58;;
31514;SDS011;40526;52.088;17.020;2023-03-31T06:24:44;7.22;;;3.85;;
31514;SDS011;40526;52.088;17.020;2023-03-31T06:29:46;6.53;;;3.47;;
31514;SDS011;40526;52.088;17.020;2023-03-31T06:34:50;6.60;;;3.80;;
31514;SDS011;40526;52.088;17.020;2023-03-31T06:39:52;5.65;;;3.60;;
31514;SDS011;40526;52.088;17.020;2023-03-31T06:44:55;9.15;;;4.05;;
31514;SDS011;40526;52.088;17.020;2023-03-31T06:49:58;6.60;;;3.67;;
31514;SDS011;40526;52.088;17.020;2023-03-31T06:55:00;7.72;;;3.80;;
31514;SDS011;40526;52.088;17.020;2023-03-31T07:00:03;7.85;;;3.10;;
31514;SDS011;40526;52.088;17.020;2023-03-31T07:05:08;8.70;;;3.25;;
31514;SDS011;40526;52.088;17.020;2023-03-31T07:10:11;4.85;;;3.22;;
31514;SDS011;40526;52.088;17.020;2023-03-31T07:15:13;5.60;;;3.30;;
31514;SDS011;40526;52.088;17.020;2023-03-31T07:20:17;7.82;;;3.22;;
31514;SDS011;40526;52.088;17.020;2023-03-31T07:25:21;7.25;;;3.90;;
31514;SDS011;40526;52.088;17.020;2023-03-31T07:30:23;6.10;;;4.03;;
31514;SDS011;40526;52.088;17.020;2023-03-31T07:35:27;6.63;;;4.18;;
31514;SDS011;40526;52.088;17.020;2023-03-31T07:40:30;12.85;;;4.10;;
31514;SDS011;40526;52.088;17.020;2023-03-31T07:45:32;7.40;;;3.78;;
31514;SDS011;40526;52.088;17.020;2023-03-31T07:50:36;6.88;;;4.18;;
31514;SDS011;40526;52.088;17.020;2023-03-31T07:55:45;10.18;;;3.60;;
31514;SDS011;40526;52.088;17.020;2023-03-31T08:00:47;7.65;;;3.95;;
31514;SDS011;40526;52.088;17.020;2023-03-31T08:05:51;6.13;;;3.55;;
31514;SDS011;40526;52.088;17.020;2023-03-31T08:10:54;6.10;;;3.60;;
31514;SDS011;40526;52.088;17.020;2023-03-31T08:15:56;9.70;;;4.00;;
31514;SDS011;40526;52.088;17.020;2023-03-31T08:20:59;5.65;;;3.10;;
31514;SDS011;40526;52.088;17.020;2023-03-31T08:26:06;10.40;;;3.85;;
31514;SDS011;40526;52.088;17.020;2023-03-31T08:31:10;4.60;;;3.38;;
31514;SDS011;40526;52.088;17.020;2023-03-31T08:36:16;5.85;;;3.38;;
31514;SDS011;40526;52.088;17.020;2023-03-31T08:41:23;6.05;;;3.08;;
31514;SDS011;40526;52.088;17.020;2023-03-31T08:46:34;8.48;;;2.88;;
31514;SDS011;40526;52.088;17.020;2023-03-31T08:51:39;5.47;;;2.83;;
31514;SDS011;40526;52.088;17.020;2023-03-31T08:56:45;9.00;;;3.00;;
31514;SDS011;40526;52.088;17.020;2023-03-31T09:01:51;6.25;;;3.03;;
31514;SDS011;40526;52.088;17.020;2023-03-31T09:07:01;5.68;;;2.72;;
31514;SDS011;40526;52.088;17.020;2023-03-31T09:12:09;7.07;;;2.80;;
31514;SDS011;40526;52.088;17.020;2023-03-31T09:17:17;8.30;;;3.05;;
31514;SDS011;40526;52.088;17.020;2023-03-31T09:22:26;6.68;;;3.05;;
31514;SDS011;40526;52.088;17.020;2023-03-31T09:27:33;5.97;;;3.45;;
31514;SDS011;40526;52.088;17.020;2023-03-31T09:32:36;8.50;;;3.15;;
31514;SDS011;40526;52.088;17.020;2023-03-31T09:37:41;8.25;;;3.95;;
31514;SDS011;40526;52.088;17.020;2023-03-31T09:42:44;11.60;;;3.53;;
31514;SDS011;40526;52.088;17.020;2023-03-31T09:47:49;10.15;;;3.85;;
31514;SDS011;40526;52.088;17.020;2023-03-31T09:52:54;5.38;;;3.17;;
31514;SDS011;40526;52.088;17.020;2023-03-31T09:57:58;5.43;;;3.53;;
31514;SDS011;40526;52.088;17.020;2023-03-31T10:03:01;8.27;;;3.53;;
31514;SDS011;40526;52.088;17.020;2023-03-31T10:08:13;11.93;;;4.40;;
31514;SDS011;40526;52.088;17.020;2023-03-31T10:13:33;7.97;;;3.58;;
31514;SDS011;40526;52.088;17.020;2023-03-31T10:18:40;6.75;;;3.05;;
31514;SDS011;40526;52.088;17.020;2023-03-31T10:23:46;6.40;;;3.28;;
31514;SDS011;40526;52.088;17.020;2023-03-31T10:28:49;9.50;;;2.90;;
31514;SDS011;40526;52.088;17.020;2023-03-31T10:33:54;4.82;;;2.97;;
31514;SDS011;40526;52.088;17.020;2023-03-31T10:39:00;11.48;;;3.22;;
31514;SDS011;40526;52.088;17.020;2023-03-31T10:44:10;9.30;;;3.65;;
31514;SDS011;40526;52.088;17.020;2023-03-31T10:49:36;6.70;;;3.00;;
31514;SDS011;40526;52.088;17.020;2023-03-31T10:54:44;5.82;;;3.53;;
31514;SDS011;40526;52.088;17.020;2023-03-31T10:59:51;5.85;;;2.70;;
31514;SDS011;40526;52.088;17.020;2023-03-31T11:05:05;8.30;;;3.47;;
31514;SDS011;40526;52.088;17.020;2023-03-31T11:10:30;9.13;;;3.38;;
31514;SDS011;40526;52.088;17.020;2023-03-31T11:15:43;6.43;;;3.30;;
31514;SDS011;40526;52.088;17.020;2023-03-31T11:20:55;6.07;;;3.58;;
31514;SDS011;40526;52.088;17.020;2023-03-31T11:26:09;7.97;;;3.45;;
31514;SDS011;40526;52.088;17.020;2023-03-31T11:31:19;4.63;;;3.17;;
31514;SDS011;40526;52.088;17.020;2023-03-31T11:36:35;6.50;;;3.50;;
31514;SDS011;40526;52.088;17.020;2023-03-31T11:41:53;8.98;;;3.53;;
31514;SDS011;40526;52.088;17.020;2023-03-31T11:47:00;6.30;;;3.30;;
31514;SDS011;40526;52.088;17.020;2023-03-31T11:52:07;6.68;;;2.80;;
31514;SDS011;40526;52.088;17.020;2023-03-31T11:57:17;8.25;;;3.25;;
31514;SDS011;40526;52.088;17.020;2023-03-31T12:02:23;12.55;;;4.82;;
31514;SDS011;40526;52.088;17.020;2023-03-31T12:07:40;7.97;;;4.45;;
31514;SDS011;40526;52.088;17.020;2023-03-31T12:12:48;7.00;;;3.58;;
31514;SDS011;40526;52.088;17.020;2023-03-31T12:17:57;6.18;;;3.88;;
31514;SDS011;40526;52.088;17.020;2023-03-31T12:23:04;5.53;;;3.70;;
31514;SDS011;40526;52.088;17.020;2023-03-31T12:28:11;8.18;;;4.00;;
31514;SDS011;40526;52.088;17.020;2023-03-31T12:33:16;7.78;;;3.95;;
31514;SDS011;40526;52.088;17.020;2023-03-31T12:38:24;6.85;;;4.00;;
31514;SDS011;40526;52.088;17.020;2023-03-31T12:43:55;7.43;;;4.53;;
31514;SDS011;40526;52.088;17.020;2023-03-31T12:49:20;8.40;;;3.60;;
31514;SDS011;40526;52.088;17.020;2023-03-31T12:54:42;4.80;;;3.95;;
31514;SDS011;40526;52.088;17.020;2023-03-31T13:00:17;7.00;;;3.72;;
31514;SDS011;40526;52.088;17.020;2023-03-31T13:10:52;6.32;;;2.90;;
31514;SDS011;40526;52.088;17.020;2023-03-31T13:16:00;6.90;;;3.47;;
31514;SDS011;40526;52.088;17.020;2023-03-31T13:21:04;7.68;;;4.28;;
31514;SDS011;40526;52.088;17.020;2023-03-31T13:26:21;7.28;;;4.70;;
31514;SDS011;40526;52.088;17.020;2023-03-31T13:37:29;7.20;;;5.00;;
31514;SDS011;40526;52.088;17.020;2023-03-31T13:43:00;10.18;;;3.85;;
31514;SDS011;40526;52.088;17.020;2023-03-31T13:48:23;8.73;;;3.70;;
31514;SDS011;40526;52.088;17.020;2023-03-31T13:58:49;12.18;;;6.05;;
31514;SDS011;40526;52.088;17.020;2023-03-31T14:04:42;15.55;;;7.60;;
31514;SDS011;40526;52.088;17.020;2023-03-31T14:09:57;14.65;;;7.55;;
31514;SDS011;40526;52.088;17.020;2023-03-31T14:15:00;12.10;;;5.82;;
31514;SDS011;40526;52.088;17.020;2023-03-31T14:20:08;18.88;;;11.90;;
31514;SDS011;40526;52.088;17.020;2023-03-31T14:25:30;44.35;;;29.42;;
31514;SDS011;40526;52.088;17.020;2023-03-31T14:30:41;43.42;;;28.30;;
31514;SDS011;40526;52.088;17.020;2023-03-31T14:35:53;37.10;;;23.08;;
31514;SDS011;40526;52.088;17.020;2023-03-31T14:41:02;29.52;;;18.20;;
31514;SDS011;40526;52.088;17.020;2023-03-31T14:46:05;72.20;;;36.92;;
31514;SDS011;40526;52.088;17.020;2023-03-31T14:51:08;52.40;;;30.02;;
31514;SDS011;40526;52.088;17.020;2023-03-31T14:56:14;23.60;;;15.82;;
31514;SDS011;40526;52.088;17.020;2023-03-31T15:01:22;31.08;;;20.85;;
31514;SDS011;40526;52.088;17.020;2023-03-31T15:06:29;22.00;;;13.77;;
31514;SDS011;40526;52.088;17.020;2023-03-31T15:11:34;10.15;;;6.72;;
31514;SDS011;40526;52.088;17.020;2023-03-31T15:16:37;11.30;;;5.95;;
31514;SDS011;40526;52.088;17.020;2023-03-31T15:21:42;9.25;;;5.32;;
31514;SDS011;40526;52.088;17.020;2023-03-31T15:26:47;13.80;;;7.88;;
31514;SDS011;40526;52.088;17.020;2023-03-31T15:31:55;13.23;;;7.30;;
31514;SDS011;40526;52.088;17.020;2023-03-31T15:36:58;11.85;;;7.93;;
31514;SDS011;40526;52.088;17.020;2023-03-31T15:42:03;9.60;;;6.50;;
31514;SDS011;40526;52.088;17.020;2023-03-31T15:47:11;15.63;;;6.93;;
31514;SDS011;40526;52.088;17.020;2023-03-31T15:52:19;16.27;;;7.63;;
31514;SDS011;40526;52.088;17.020;2023-03-31T15:57:30;18.25;;;8.43;;
31514;SDS011;40526;52.088;17.020;2023-03-31T16:02:38;17.90;;;8.00;;
31514;SDS011;40526;52.088;17.020;2023-03-31T16:07:43;19.52;;;8.70;;
31514;SDS011;40526;52.088;17.020;2023-03-31T16:12:49;15.40;;;7.50;;
31514;SDS011;40526;52.088;17.020;2023-03-31T16:17:55;10.23;;;6.10;;
31514;SDS011;40526;52.088;17.020;2023-03-31T16:23:00;17.33;;;7.20;;
31514;SDS011;40526;52.088;17.020;2023-03-31T16:28:05;10.88;;;7.00;;
31514;SDS011;40526;52.088;17.020;2023-03-31T16:33:09;12.38;;;7.53;;
31514;SDS011;40526;52.088;17.020;2023-03-31T16:38:12;10.40;;;7.22;;
31514;SDS011;40526;52.088;17.020;2023-03-31T16:43:17;8.90;;;6.60;;
31514;SDS011;40526;52.088;17.020;2023-03-31T16:48:22;11.38;;;6.55;;
31514;SDS011;40526;52.088;17.020;2023-03-31T16:53:27;9.68;;;6.35;;
31514;SDS011;40526;52.088;17.020;2023-03-31T16:58:34;8.68;;;6.68;;
31514;SDS011;40526;52.088;17.020;2023-03-31T17:03:37;9.73;;;5.90;;
31514;SDS011;40526;52.088;17.020;2023-03-31T17:08:40;10.18;;;5.90;;
31514;SDS011;40526;52.088;17.020;2023-03-31T17:13:45;8.63;;;5.57;;
31514;SDS011;40526;52.088;17.020;2023-03-31T17:18:48;11.40;;;7.07;;
31514;SDS011;40526;52.088;17.020;2023-03-31T17:23:50;13.63;;;8.05;;
31514;SDS011;40526;52.088;17.020;2023-03-31T17:28:56;13.32;;;8.30;;
31514;SDS011;40526;52.088;17.020;2023-03-31T17:34:00;13.52;;;8.15;;
31514;SDS011;40526;52.088;17.020;2023-03-31T17:39:02;14.52;;;7.70;;
31514;SDS011;40526;52.088;17.020;2023-03-31T17:44:06;12.57;;;8.25;;
31514;SDS011;40526;52.088;17.020;2023-03-31T17:49:10;11.98;;;7.53;;
31514;SDS011;40526;52.088;17.020;2023-03-31T17:54:12;14.73;;;8.05;;
31514;SDS011;40526;52.088;17.020;2023-03-31T17:59:16;14.90;;;7.60;;
31514;SDS011;40526;52.088;17.020;2023-03-31T18:04:18;12.77;;;7.82;;
31514;SDS011;40526;52.088;17.020;2023-03-31T18:09:21;16.23;;;10.38;;
31514;SDS011;40526;52.088;17.020;2023-03-31T18:14:26;17.65;;;10.90;;
31514;SDS011;40526;52.088;17.020;2023-03-31T18:19:29;19.55;;;11.85;;
31514;SDS011;40526;52.088;17.020;2023-03-31T18:24:32;23.15;;;14.45;;
31514;SDS011;40526;52.088;17.020;2023-03-31T18:29:38;25.35;;;13.93;;
31514;SDS011;40526;52.088;17.020;2023-03-31T18:34:42;31.17;;;17.35;;
31514;SDS011;40526;52.088;17.020;2023-03-31T18:39:44;24.70;;;16.08;;
31514;SDS011;40526;52.088;17.020;2023-03-31T18:44:48;30.77;;;16.58;;
31514;SDS011;40526;52.088;17.020;2023-03-31T18:49:50;26.25;;;15.32;;
31514;SDS011;40526;52.088;17.020;2023-03-31T18:54:54;41.10;;;17.02;;
31514;SDS011;40526;52.088;17.020;2023-03-31T18:59:58;33.08;;;17.98;;
31514;SDS011;40526;52.088;17.020;2023-03-31T19:05:00;27.00;;;16.67;;
31514;SDS011;40526;52.088;17.020;2023-03-31T19:10:03;25.98;;;15.60;;
31514;SDS011;40526;52.088;17.020;2023-03-31T19:15:09;25.55;;;15.88;;
31514;SDS011;40526;52.088;17.020;2023-03-31T19:20:12;25.00;;;15.90;;
31514;SDS011;40526;52.088;17.020;2023-03-31T19:25:17;25.75;;;15.60;;
31514;SDS011;40526;52.088;17.020;2023-03-31T19:30:22;25.58;;;14.88;;
31514;SDS011;40526;52.088;17.020;2023-03-31T19:35:25;26.23;;;16.13;;
31514;SDS011;40526;52.088;17.020;2023-03-31T19:40:28;30.77;;;18.17;;
31514;SDS011;40526;52.088;17.020;2023-03-31T19:45:33;24.42;;;14.48;;
31514;SDS011;40526;52.088;17.020;2023-03-31T19:50:37;22.55;;;14.70;;
31514;SDS011;40526;52.088;17.020;2023-03-31T19:55:39;25.75;;;16.27;;
31514;SDS011;40526;52.088;17.020;2023-03-31T20:00:43;25.13;;;16.10;;
31514;SDS011;40526;52.088;17.020;2023-03-31T20:05:46;22.65;;;16.35;;
31514;SDS011;40526;52.088;17.020;2023-03-31T20:10:48;22.10;;;12.23;;
31514;SDS011;40526;52.088;17.020;2023-03-31T20:15:57;16.90;;;9.98;;
31514;SDS011;40526;52.088;17.020;2023-03-31T20:21:01;14.32;;;9.25;;
31514;SDS011;40526;52.088;17.020;2023-03-31T20:26:05;13.88;;;8.38;;
31514;SDS011;40526;52.088;17.020;2023-03-31T20:31:10;13.52;;;8.43;;
31514;SDS011;40526;52.088;17.020;2023-03-31T20:36:14;17.42;;;9.18;;
31514;SDS011;40526;52.088;17.020;2023-03-31T20:41:18;14.77;;;9.55;;
31514;SDS011;40526;52.088;17.020;2023-03-31T20:46:23;16.83;;;10.25;;
31514;SDS011;40526;52.088;17.020;2023-03-31T20:51:26;14.43;;;9.25;;
31514;SDS011;40526;52.088;17.020;2023-03-31T20:56:31;13.90;;;9.43;;
31514;SDS011;40526;52.088;17.020;2023-03-31T21:01:37;11.70;;;8.23;;
31514;SDS011;40526;52.088;17.020;2023-03-31T21:06:42;14.95;;;9.45;;
31514;SDS011;40526;52.088;17.020;2023-03-31T21:11:45;16.05;;;10.40;;
31514;SDS011;40526;52.088;17.020;2023-03-31T21:16:49;18.10;;;10.35;;
31514;SDS011;40526;52.088;17.020;2023-03-31T21:21:52;21.90;;;11.23;;
31514;SDS011;40526;52.088;17.020;2023-03-31T21:26:54;17.00;;;10.20;;
31514;SDS011;40526;52.088;17.020;2023-03-31T21:31:58;19.65;;;11.02;;
31514;SDS011;40526;52.088;17.020;2023-03-31T21:37:01;16.73;;;11.82;;
31514;SDS011;40526;52.088;17.020;2023-03-31T21:42:04;19.38;;;13.07;;
31514;SDS011;40526;52.088;17.020;2023-03-31T21:47:08;18.48;;;12.77;;
31514;SDS011;40526;52.088;17.020;2023-03-31T21:52:11;30.60;;;16.48;;
31514;SDS011;40526;52.088;17.020;2023-03-31T21:57:13;15.95;;;10.43;;
31514;SDS011;40526;52.088;17.020;2023-03-31T22:02:17;20.27;;;10.50;;
31514;SDS011;40526;52.088;17.020;2023-03-31T22:07:25;13.63;;;9.77;;
31514;SDS011;40526;52.088;17.020;2023-03-31T22:12:28;19.92;;;11.60;;
31514;SDS011;40526;52.088;17.020;2023-03-31T22:17:32;20.73;;;11.30;;
31514;SDS011;40526;52.088;17.020;2023-03-31T22:22:36;16.35;;;10.95;;
31514;SDS011;40526;52.088;17.020;2023-03-31T22:27:38;17.40;;;11.40;;
31514;SDS011;40526;52.088;17.020;2023-03-31T22:32:42;17.10;;;11.95;;
31514;SDS011;40526;52.088;17.020;2023-03-31T22:37:44;17.05;;;11.68;;
31514;SDS011;40526;52.088;17.020;2023-03-31T22:42:46;18.73;;;11.50;;
31514;SDS011;40526;52.088;17.020;2023-03-31T22:47:50;22.98;;;15.27;;
31514;SDS011;40526;52.088;17.020;2023-03-31T22:52:53;24.05;;;14.15;;
31514;SDS011;40526;52.088;17.020;2023-03-31T22:57:55;21.75;;;14.57;;
31514;SDS011;40526;52.088;17.020;2023-03-31T23:02:59;24.58;;;15.30;;
31514;SDS011;40526;52.088;17.020;2023-03-31T23:08:01;24.77;;;15.82;;
31514;SDS011;40526;52.088;17.020;2023-03-31T23:13:04;23.15;;;15.52;;
31514;SDS011;40526;52.088;17.020;2023-03-31T23:18:07;30.02;;;16.40;;
31514;SDS011;40526;52.088;17.020;2023-03-31T23:23:10;31.55;;;16.42;;
31514;SDS011;40526;52.088;17.020;2023-03-31T23:28:12;28.70;;;17.10;;
31514;SDS011;40526;52.088;17.020;2023-03-31T23:33:17;25.98;;;15.90;;
31514;SDS011;40526;52.088;17.020;2023-03-31T23:38:19;21.95;;;15.57;;
31514;SDS011;40526;52.088;17.020;2023-03-31T23:43:21;25.80;;;16.05;;
31514;SDS011;40526;52.088;17.020;2023-03-31T23:48:25;23.58;;;15.82;;
31514;SDS011;40526;52.088;17.020;2023-03-31T23:53:28;21.13;;;13.52;;
31514;SDS011;40526;52.088;17.020;2023-03-31T23:58:31;23.95;;;14.73;;
